createdAt,value
2022-10-09T00:02:26.693Z,3.00
2022-10-09T00:05:15.009Z,2.20
2022-10-09T00:08:04.466Z,2.05
2022-10-09T00:10:52.499Z,2.80
2022-10-09T00:13:40.708Z,2.25
2022-10-09T00:16:28.787Z,2.08
2022-10-09T00:19:16.871Z,2.75
2022-10-09T00:22:04.997Z,2.70
2022-10-09T00:24:54.423Z,1.80
2022-10-09T00:27:42.259Z,1.80
2022-10-09T00:30:30.491Z,1.75
2022-10-09T00:33:19.080Z,2.30
2022-10-09T00:36:08.727Z,2.45
2022-10-09T00:38:57.347Z,2.65
2022-10-09T00:41:46.697Z,2.92
2022-10-09T00:44:57.290Z,2.83
2022-10-09T00:47:49.085Z,2.05
2022-10-09T00:50:42.910Z,2.03
2022-10-09T00:53:31.785Z,2.00
2022-10-09T00:56:20.163Z,2.72
2022-10-09T00:59:10.530Z,3.05
2022-10-09T01:01:58.743Z,2.78
2022-10-09T01:04:46.885Z,2.13
2022-10-09T01:07:42.301Z,2.35
2022-10-09T01:10:37.769Z,2.45
2022-10-09T01:13:34.179Z,2.47
2022-10-09T01:16:28.128Z,2.47
2022-10-09T01:19:28.621Z,2.90
2022-10-09T01:22:31.814Z,2.33
2022-10-09T01:25:26.675Z,2.50
2022-10-09T01:28:17.018Z,2.15
2022-10-09T01:31:07.401Z,2.30
2022-10-09T01:33:55.535Z,2.35
2022-10-09T01:36:45.467Z,2.78
2022-10-09T01:39:35.537Z,2.30
2022-10-09T01:42:25.441Z,2.17
2022-10-09T01:45:16.700Z,2.78
2022-10-09T01:48:05.113Z,2.92
2022-10-09T01:50:56.829Z,2.05
2022-10-09T01:53:45.430Z,2.17
2022-10-09T01:56:35.899Z,2.55
2022-10-09T01:59:26.120Z,3.10
2022-10-09T02:02:15.684Z,2.13
2022-10-09T02:05:04.690Z,2.33
2022-10-09T02:07:53.391Z,2.55
2022-10-09T02:10:43.417Z,2.30
2022-10-09T02:13:32.354Z,2.20
2022-10-09T02:16:23.510Z,3.25
2022-10-09T02:19:17.937Z,2.00
2022-10-09T02:22:11.454Z,2.75
2022-10-09T02:25:04.859Z,2.40
2022-10-09T02:27:53.052Z,2.03
2022-10-09T02:30:48.760Z,2.05
2022-10-09T02:33:36.698Z,2.70
2022-10-09T02:36:27.151Z,3.30
2022-10-09T02:39:15.241Z,2.88
2022-10-09T02:42:03.502Z,3.03
2022-10-09T02:44:51.412Z,3.03
2022-10-09T02:47:39.260Z,2.78
2022-10-09T02:50:27.586Z,2.92
2022-10-09T02:53:16.965Z,2.10
2022-10-09T02:56:05.032Z,2.45
2022-10-09T02:58:53.156Z,2.63
2022-10-09T03:01:41.175Z,2.90
2022-10-09T03:04:29.209Z,3.53
2022-10-09T03:07:17.085Z,2.97
2022-10-09T03:10:07.154Z,2.92
2022-10-09T03:12:55.169Z,2.40
2022-10-09T03:15:43.227Z,2.83
2022-10-09T03:18:31.484Z,3.33
2022-10-09T03:21:21.449Z,2.67
2022-10-09T03:24:10.544Z,3.42
2022-10-09T03:26:59.837Z,3.28
2022-10-09T03:29:48.087Z,3.65
2022-10-09T03:32:36.187Z,2.80
2022-10-09T03:35:24.114Z,2.78
2022-10-09T03:38:14.502Z,3.13
2022-10-09T03:41:03.878Z,2.80
2022-10-09T03:43:53.176Z,3.03
2022-10-09T03:46:41.181Z,2.70
2022-10-09T03:49:29.426Z,3.08
2022-10-09T03:52:17.405Z,3.15
2022-10-09T03:55:06.222Z,2.97
2022-10-09T03:57:54.150Z,2.95
2022-10-09T04:00:45.247Z,2.83
2022-10-09T04:03:33.174Z,3.13
2022-10-09T04:06:21.201Z,2.90
2022-10-09T04:09:09.298Z,3.28
2022-10-09T04:11:57.165Z,3.22
2022-10-09T04:14:45.037Z,3.33
2022-10-09T04:17:34.246Z,4.10
2022-10-09T04:20:22.525Z,3.63
2022-10-09T04:23:10.499Z,4.72
2022-10-09T04:26:00.360Z,3.50
2022-10-09T04:28:48.308Z,3.97
2022-10-09T04:31:36.284Z,3.40
2022-10-09T04:34:25.613Z,3.75
2022-10-09T04:37:13.637Z,4.40
2022-10-09T04:40:01.590Z,3.00
2022-10-09T04:42:49.814Z,3.42
2022-10-09T04:45:41.507Z,3.80
2022-10-09T04:48:29.438Z,3.95
2022-10-09T04:51:19.451Z,5.32
2022-10-09T04:54:07.594Z,5.05
2022-10-09T04:56:55.580Z,5.40
2022-10-09T04:59:43.657Z,5.22
2022-10-09T05:02:32.028Z,5.43
2022-10-09T05:05:20.178Z,5.43
2022-10-09T05:08:09.612Z,5.03
2022-10-09T05:11:01.002Z,4.78
2022-10-09T05:13:50.771Z,5.32
2022-10-09T05:17:01.035Z,4.78
2022-10-09T05:19:46.655Z,5.68
2022-10-09T05:22:34.599Z,5.18
2022-10-09T05:25:23.974Z,5.03
2022-10-09T05:28:13.223Z,5.32
2022-10-09T05:31:01.447Z,5.00
2022-10-09T05:33:49.907Z,5.10
2022-10-09T05:36:38.209Z,4.65
2022-10-09T05:39:26.443Z,4.20
2022-10-09T05:42:15.699Z,3.78
2022-10-09T05:45:03.748Z,3.30
2022-10-09T05:47:51.673Z,3.40
2022-10-09T05:50:39.819Z,3.55
2022-10-09T05:53:27.718Z,3.63
2022-10-09T05:56:18.060Z,3.83
2022-10-09T05:59:09.122Z,3.60
2022-10-09T06:01:57.171Z,3.83
2022-10-09T06:04:45.099Z,3.92
2022-10-09T06:07:33.056Z,5.68
2022-10-09T06:10:21.042Z,6.80
2022-10-09T06:13:08.959Z,4.30
2022-10-09T06:15:58.262Z,5.68
2022-10-09T06:18:49.448Z,4.88
2022-10-09T06:21:37.624Z,4.32
2022-10-09T06:24:29.429Z,4.10
2022-10-09T06:27:17.723Z,4.00
2022-10-09T06:30:06.363Z,10.00
2022-10-09T06:32:55.607Z,3.97
2022-10-09T06:35:43.775Z,4.00
2022-10-09T06:38:31.872Z,4.38
2022-10-09T06:41:21.859Z,4.20
2022-10-09T06:44:16.669Z,4.82
2022-10-09T06:47:04.961Z,4.25
2022-10-09T06:49:54.318Z,4.53
2022-10-09T06:52:42.533Z,4.10
2022-10-09T06:55:30.839Z,4.00
2022-10-09T06:58:19.101Z,4.70
2022-10-09T07:01:10.084Z,4.00
2022-10-09T07:03:59.941Z,5.43
2022-10-09T07:06:49.444Z,5.75
2022-10-09T07:09:37.669Z,5.13
2022-10-09T07:12:25.622Z,6.00
2022-10-09T07:15:13.494Z,4.38
2022-10-09T07:18:03.461Z,3.83
2022-10-09T07:20:51.307Z,4.30
2022-10-09T07:23:40.754Z,4.50
2022-10-09T07:26:30.835Z,4.38
2022-10-09T07:29:19.969Z,4.20
2022-10-09T07:32:10.459Z,4.82
2022-10-09T07:34:58.763Z,4.25
2022-10-09T07:37:46.606Z,5.10
2022-10-09T07:40:36.686Z,5.03
2022-10-09T07:43:24.708Z,5.78
2022-10-09T07:46:15.342Z,4.47
2022-10-09T07:49:04.326Z,4.40
2022-10-09T07:51:52.263Z,4.75
2022-10-09T07:54:40.289Z,4.57
2022-10-09T07:57:29.603Z,4.88
2022-10-09T08:00:17.884Z,4.63
2022-10-09T08:03:05.916Z,4.95
2022-10-09T08:05:55.364Z,4.00
2022-10-09T08:08:43.644Z,4.40
2022-10-09T08:11:31.699Z,4.47
2022-10-09T08:14:21.125Z,3.80
2022-10-09T08:17:09.027Z,4.43
2022-10-09T08:19:58.095Z,4.40
2022-10-09T08:22:46.278Z,3.13
2022-10-09T08:25:35.268Z,4.15
2022-10-09T08:28:23.730Z,3.78
2022-10-09T08:31:14.862Z,3.45
2022-10-09T08:34:04.404Z,3.13
2022-10-09T08:36:52.656Z,3.97
2022-10-09T08:39:40.554Z,3.47
2022-10-09T08:42:33.724Z,3.40
2022-10-09T08:45:21.763Z,2.63
2022-10-09T08:48:15.638Z,3.05
2022-10-09T08:51:09.214Z,3.38
2022-10-09T08:54:02.046Z,2.95
2022-10-09T08:56:51.603Z,3.38
2022-10-09T08:59:39.693Z,3.25
2022-10-09T09:02:40.129Z,3.28
2022-10-09T09:05:37.693Z,3.28
2022-10-09T09:08:38.018Z,3.97
2022-10-09T09:11:47.935Z,3.25
2022-10-09T09:14:47.697Z,2.47
2022-10-09T09:17:42.989Z,2.55
2022-10-09T09:20:43.539Z,2.95
2022-10-09T09:23:37.960Z,3.15
2022-10-09T09:26:27.839Z,2.88
2022-10-09T09:29:19.497Z,2.85
2022-10-09T09:32:18.557Z,2.30
2022-10-09T09:35:17.011Z,2.75
2022-10-09T09:38:06.506Z,3.40
2022-10-09T09:40:54.454Z,2.90
2022-10-09T09:43:45.096Z,2.50
2022-10-09T09:46:33.506Z,2.50
2022-10-09T09:49:23.493Z,2.45
2022-10-09T09:52:12.537Z,2.30
2022-10-09T09:55:01.867Z,2.70
2022-10-09T09:57:50.550Z,3.05
2022-10-09T10:00:38.745Z,2.50
2022-10-09T10:03:26.861Z,2.22
2022-10-09T10:06:22.223Z,2.58
2022-10-09T10:09:15.315Z,2.10
2022-10-09T10:12:05.391Z,2.00
2022-10-09T10:14:53.433Z,1.70
2022-10-09T10:17:41.793Z,1.83
2022-10-09T10:20:32.009Z,1.83
2022-10-09T10:23:26.751Z,1.63
2022-10-09T10:26:23.524Z,1.77
2022-10-09T10:29:16.996Z,1.38
2022-10-09T10:32:13.288Z,1.50
2022-10-09T10:35:04.419Z,1.70
2022-10-09T10:37:59.172Z,1.73
2022-10-09T10:40:51.904Z,1.60
2022-10-09T10:43:44.269Z,1.52
2022-10-09T10:46:40.409Z,2.83
2022-10-09T10:49:33.484Z,1.77
2022-10-09T10:52:34.506Z,1.77
2022-10-09T10:55:38.978Z,2.55
2022-10-09T10:58:31.400Z,1.70
2022-10-09T11:01:31.347Z,2.42
2022-10-09T11:04:42.239Z,2.00
2022-10-09T11:07:37.685Z,3.85
2022-10-09T11:10:30.828Z,2.15
2022-10-09T11:13:24.034Z,1.90
2022-10-09T11:16:25.804Z,1.98
2022-10-09T11:19:32.270Z,1.67
2022-10-09T11:22:34.073Z,1.25
2022-10-09T11:25:31.198Z,1.10
2022-10-09T11:28:23.690Z,1.40
2022-10-09T11:31:16.740Z,1.30
2022-10-09T11:34:11.369Z,2.00
2022-10-09T11:37:02.243Z,2.13
2022-10-09T11:39:50.218Z,1.40
2022-10-09T11:42:38.424Z,1.98
2022-10-09T11:45:31.574Z,2.13
2022-10-09T11:48:31.535Z,1.98
2022-10-09T11:51:29.555Z,1.95
2022-10-09T11:54:22.496Z,2.88
2022-10-09T11:57:14.979Z,1.73
2022-10-09T12:00:07.349Z,1.63
2022-10-09T12:02:59.074Z,2.90
2022-10-09T12:05:49.924Z,2.08
2022-10-09T12:08:39.383Z,1.50
2022-10-09T12:11:29.395Z,1.60
2022-10-09T12:14:26.061Z,1.45
2022-10-09T12:17:34.123Z,1.55
2022-10-09T12:20:25.078Z,1.40
2022-10-09T12:23:26.164Z,1.88
2022-10-09T12:26:16.238Z,6.15
2022-10-09T12:29:06.228Z,1.98
2022-10-09T12:31:57.894Z,1.45
2022-10-09T12:34:48.561Z,1.15
2022-10-09T12:37:37.196Z,1.27
2022-10-09T12:40:28.302Z,1.33
2022-10-09T12:43:19.146Z,1.15
2022-10-09T12:46:08.598Z,0.85
2022-10-09T12:48:57.351Z,1.10
2022-10-09T12:51:53.873Z,1.33
2022-10-09T12:54:45.837Z,1.20
2022-10-09T12:57:33.902Z,1.30
2022-10-09T13:00:21.821Z,1.13
2022-10-09T13:03:24.404Z,1.15
2022-10-09T13:06:16.611Z,1.33
2022-10-09T13:09:06.730Z,1.00
2022-10-09T13:11:58.340Z,1.00
2022-10-09T13:14:47.683Z,1.15
2022-10-09T13:17:37.619Z,1.00
2022-10-09T13:20:30.363Z,1.08
2022-10-09T13:23:28.597Z,1.27
2022-10-09T13:26:26.497Z,1.00
2022-10-09T13:29:15.176Z,1.25
2022-10-09T13:32:03.628Z,1.00
2022-10-09T13:34:54.905Z,1.45
2022-10-09T13:37:44.370Z,1.20
2022-10-09T13:40:32.282Z,1.17
2022-10-09T13:43:23.697Z,1.40
2022-10-09T13:46:11.748Z,1.50
2022-10-09T13:48:59.732Z,2.60
2022-10-09T13:51:47.634Z,1.50
2022-10-09T13:54:37.036Z,1.42
2022-10-09T13:57:24.872Z,1.92
2022-10-09T14:00:13.974Z,1.23
2022-10-09T14:03:01.840Z,1.02
2022-10-09T14:05:49.661Z,1.02
2022-10-09T14:08:37.595Z,1.50
2022-10-09T14:11:26.991Z,1.38
2022-10-09T14:14:15.045Z,0.93
2022-10-09T14:17:03.019Z,0.80
2022-10-09T14:19:50.990Z,1.20
2022-10-09T14:22:38.997Z,1.10
2022-10-09T14:25:27.054Z,1.10
2022-10-09T14:28:16.627Z,1.35
2022-10-09T14:31:06.629Z,1.40
2022-10-09T14:33:57.919Z,1.20
2022-10-09T14:36:45.872Z,1.25
2022-10-09T14:39:33.791Z,1.13
2022-10-09T14:42:21.726Z,1.17
2022-10-09T14:45:12.086Z,0.93
2022-10-09T14:48:00.200Z,1.33
2022-10-09T14:50:48.178Z,1.48
2022-10-09T14:53:36.141Z,1.30
2022-10-09T14:56:24.054Z,1.00
2022-10-09T14:59:12.062Z,1.40
2022-10-09T15:02:01.300Z,1.10
2022-10-09T15:04:49.171Z,1.10
2022-10-09T15:07:37.057Z,1.75
2022-10-09T15:10:24.933Z,1.20
2022-10-09T15:13:12.795Z,1.30
2022-10-09T15:16:00.942Z,1.30
2022-10-09T15:18:51.828Z,1.55
2022-10-09T15:21:39.774Z,1.35
2022-10-09T15:24:27.737Z,1.50
2022-10-09T15:27:15.606Z,1.13
2022-10-09T15:30:04.457Z,1.25
2022-10-09T15:32:52.533Z,1.35
2022-10-09T15:35:41.931Z,1.10
2022-10-09T15:38:29.899Z,1.20
2022-10-09T15:41:24.161Z,1.50
2022-10-09T15:44:16.439Z,1.38
2022-10-09T15:47:04.353Z,1.35
2022-10-09T15:49:53.528Z,1.40
2022-10-09T15:52:42.816Z,1.90
2022-10-09T15:55:30.682Z,1.70
2022-10-09T15:58:19.358Z,1.50
2022-10-09T16:01:10.209Z,1.30
2022-10-09T16:03:58.241Z,1.80
2022-10-09T16:06:46.105Z,1.45
2022-10-09T16:09:36.606Z,1.98
2022-10-09T16:12:24.543Z,2.08
2022-10-09T16:15:12.676Z,1.30
2022-10-09T16:18:00.547Z,3.03
2022-10-09T16:20:49.010Z,1.70
2022-10-09T16:23:37.460Z,2.08
2022-10-09T16:26:27.956Z,2.00
2022-10-09T16:29:15.784Z,1.85
2022-10-09T16:32:03.829Z,2.17
2022-10-09T16:34:51.723Z,1.98
2022-10-09T16:37:39.884Z,1.85
2022-10-09T16:40:49.820Z,2.03
2022-10-09T16:43:37.542Z,2.05
2022-10-09T16:46:27.582Z,3.03
2022-10-09T16:49:21.276Z,1.60
2022-10-09T16:52:12.187Z,2.25
2022-10-09T16:55:00.730Z,2.00
2022-10-09T16:57:49.641Z,1.63
2022-10-09T17:00:39.051Z,1.73
2022-10-09T17:03:28.142Z,1.55
2022-10-09T17:06:20.091Z,1.70
2022-10-09T17:09:13.668Z,1.63
2022-10-09T17:12:02.323Z,2.05
2022-10-09T17:14:50.340Z,1.88
2022-10-09T17:17:39.640Z,2.00
2022-10-09T17:20:27.570Z,1.70
2022-10-09T17:23:15.613Z,2.42
2022-10-09T17:26:06.810Z,1.98
2022-10-09T17:28:58.712Z,2.55
2022-10-09T17:31:46.674Z,2.65
2022-10-09T17:34:35.993Z,2.15
2022-10-09T17:37:23.920Z,2.20
2022-10-09T17:40:12.022Z,2.58
2022-10-09T17:42:59.846Z,2.50
2022-10-09T17:45:50.000Z,2.20
2022-10-09T17:48:43.991Z,2.70
2022-10-09T17:51:35.582Z,2.63
2022-10-09T17:54:23.732Z,2.40
2022-10-09T17:57:12.513Z,2.10
2022-10-09T18:00:00.596Z,2.38
2022-10-09T18:02:48.542Z,2.28
2022-10-09T18:05:41.814Z,2.20
2022-10-09T18:08:31.866Z,2.58
2022-10-09T18:11:21.013Z,2.13
2022-10-09T18:14:09.742Z,2.33
2022-10-09T18:16:57.776Z,2.40
2022-10-09T18:19:45.684Z,2.33
2022-10-09T18:22:35.795Z,2.40
2022-10-09T18:25:25.151Z,2.17
2022-10-09T18:28:13.758Z,2.15
2022-10-09T18:31:06.018Z,2.67
2022-10-09T18:33:54.321Z,2.65
2022-10-09T18:36:42.343Z,1.75
2022-10-09T18:39:30.266Z,2.13
2022-10-09T18:42:19.580Z,2.50
2022-10-09T18:45:08.803Z,3.13
2022-10-09T18:47:56.836Z,2.40
2022-10-09T18:50:45.470Z,2.65
2022-10-09T18:53:33.804Z,3.03
2022-10-09T18:56:22.724Z,3.35
2022-10-09T18:59:14.537Z,3.20
2022-10-09T19:02:02.510Z,3.17
2022-10-09T19:04:50.526Z,2.80
2022-10-09T19:07:38.489Z,3.28
2022-10-09T19:10:26.666Z,2.40
2022-10-09T19:13:14.715Z,2.63
2022-10-09T19:16:05.628Z,2.50
2022-10-09T19:18:53.727Z,3.28
2022-10-09T19:21:43.876Z,3.25
2022-10-09T19:24:34.233Z,3.25
2022-10-09T19:27:26.341Z,3.17
2022-10-09T19:30:15.106Z,3.20
2022-10-09T19:33:04.507Z,2.92
2022-10-09T19:35:54.773Z,3.00
2022-10-09T19:38:43.130Z,3.15
2022-10-09T19:41:31.333Z,2.90
2022-10-09T19:44:19.686Z,3.13
2022-10-09T19:47:07.672Z,2.65
2022-10-09T19:49:57.067Z,2.85
2022-10-09T19:52:47.054Z,2.40
2022-10-09T19:55:35.620Z,2.15
2022-10-09T19:58:23.603Z,1.70
2022-10-09T20:01:12.249Z,1.77
2022-10-09T20:04:07.546Z,2.30
2022-10-09T20:06:56.970Z,2.45
2022-10-09T20:09:44.948Z,2.50
2022-10-09T20:12:32.932Z,3.05
2022-10-09T20:15:22.369Z,2.15
2022-10-09T20:18:10.672Z,2.15
2022-10-09T20:20:59.106Z,2.20
2022-10-09T20:23:48.420Z,2.90
2022-10-09T20:26:40.906Z,1.73
2022-10-09T20:29:30.836Z,1.88
2022-10-09T20:32:18.837Z,2.03
2022-10-09T20:35:07.784Z,1.85
2022-10-09T20:37:55.721Z,1.92
2022-10-09T20:40:45.053Z,1.80
2022-10-09T20:43:33.132Z,2.08
2022-10-09T20:46:22.352Z,2.30
2022-10-09T20:49:14.101Z,2.10
2022-10-09T20:52:02.018Z,2.05
2022-10-09T20:54:50.294Z,2.15
2022-10-09T20:57:39.680Z,2.20
2022-10-09T21:00:27.973Z,1.77
2022-10-09T21:03:16.005Z,1.70
2022-10-09T21:06:04.975Z,1.52
2022-10-09T21:08:53.124Z,1.92
2022-10-09T21:11:41.601Z,1.75
2022-10-09T21:14:31.093Z,1.83
2022-10-09T21:17:19.091Z,1.50
2022-10-09T21:20:07.952Z,1.90
2022-10-09T21:22:55.909Z,1.70
2022-10-09T21:25:48.311Z,2.00
2022-10-09T21:28:36.604Z,2.00
2022-10-09T21:31:28.352Z,2.10
2022-10-09T21:34:16.302Z,1.77
2022-10-09T21:37:21.887Z,2.05
2022-10-09T21:40:11.154Z,1.90
2022-10-09T21:42:59.246Z,2.10
2022-10-09T21:45:50.782Z,2.35
2022-10-09T21:48:40.211Z,1.90
2022-10-09T21:51:28.835Z,1.92
2022-10-09T21:54:17.527Z,1.73
2022-10-09T21:57:05.607Z,2.00
2022-10-09T21:59:53.734Z,2.10
2022-10-09T22:02:41.764Z,1.85
2022-10-09T22:05:30.969Z,2.15
2022-10-09T22:08:19.348Z,1.88
2022-10-09T22:11:08.210Z,1.90
2022-10-09T22:13:56.272Z,1.92
2022-10-09T22:16:44.151Z,1.85
2022-10-09T22:19:32.313Z,2.17
2022-10-09T22:22:23.583Z,2.40
2022-10-09T22:25:11.777Z,2.15
2022-10-09T22:27:59.733Z,2.20
2022-10-09T22:30:47.595Z,2.08
2022-10-09T22:33:36.589Z,2.45
2022-10-09T22:36:26.171Z,2.20
2022-10-09T22:39:15.403Z,2.15
2022-10-09T22:42:03.393Z,2.50
2022-10-09T22:44:51.339Z,2.00
2022-10-09T22:47:39.472Z,2.40
2022-10-09T22:50:27.389Z,2.00
2022-10-09T22:53:15.259Z,1.98
2022-10-09T22:56:06.804Z,2.58
2022-10-09T22:58:54.887Z,2.13
2022-10-09T23:01:45.037Z,2.30
2022-10-09T23:04:33.116Z,2.20
2022-10-09T23:07:21.065Z,2.25
2022-10-09T23:10:09.645Z,2.30
2022-10-09T23:12:58.992Z,2.25
2022-10-09T23:15:47.086Z,1.98
2022-10-09T23:18:36.020Z,1.95
2022-10-09T23:21:24.867Z,2.30
2022-10-09T23:24:17.376Z,2.00
2022-10-09T23:27:05.439Z,1.98
2022-10-09T23:29:54.790Z,2.30
2022-10-09T23:32:42.766Z,2.00
2022-10-09T23:35:30.693Z,2.15
2022-10-09T23:38:18.617Z,2.05
2022-10-09T23:41:08.563Z,2.25
2022-10-09T23:43:56.812Z,1.60
2022-10-09T23:46:46.147Z,1.80
2022-10-09T23:49:35.206Z,2.00
2022-10-09T23:52:23.084Z,1.70
2022-10-09T23:55:11.022Z,2.13
2022-10-09T23:57:58.950Z,1.77
